Time;durP1;ratioP1;P1;durP2;ratioP2;P2;SDS_P1;SDS_P2;PMS_P1;PMS_P2;Temp;Humidity;BMP_temperature;BMP_pressure;BME280_temperature;BME280_humidity;BME280_pressure;Samples;Min_cycle;Max_cycle;Signal;HPM_P1;HPM_P2
2022/10/16 00:00:31;;;;;;;5.90;3.80;;;13.60;99.90;;;;;;5015887;28;20839;-94
2022/10/16 00:02:56;;;;;;;4.67;3.40;;;13.50;99.90;;;;;;5016043;28;20455;-92
2022/10/16 00:05:22;;;;;;;6.40;3.97;;;13.50;99.90;;;;;;5016194;28;20211;-93
2022/10/16 00:07:47;;;;;;;8.07;3.40;;;13.50;99.90;;;;;;5016461;28;20175;-94
2022/10/16 00:10:13;;;;;;;4.97;3.47;;;13.50;99.90;;;;;;5016364;28;20181;-92
2022/10/16 00:12:38;;;;;;;4.40;3.00;;;13.40;99.90;;;;;;5017607;28;20218;-94
2022/10/16 00:15:05;;;;;;;6.83;5.60;;;13.40;99.90;;;;;;5016489;28;20668;-93
2022/10/16 00:17:31;;;;;;;5.43;3.63;;;13.40;99.90;;;;;;5015987;28;20224;-93
2022/10/16 00:19:56;;;;;;;5.07;3.93;;;13.40;99.90;;;;;;5016952;28;20410;-93
2022/10/16 00:22:22;;;;;;;5.00;3.67;;;13.40;99.90;;;;;;5016937;28;20182;-92
2022/10/16 00:24:47;;;;;;;4.43;2.60;;;13.30;99.90;;;;;;5015086;28;20517;-94
2022/10/16 00:27:13;;;;;;;8.60;3.37;;;13.40;99.90;;;;;;5015853;28;20181;-92
2022/10/16 00:29:38;;;;;;;5.70;3.87;;;13.30;99.90;;;;;;5015222;28;20178;-94
2022/10/16 00:32:04;;;;;;;5.70;3.80;;;13.30;99.90;;;;;;5016224;28;20262;-90
2022/10/16 00:34:30;;;;;;;4.77;3.23;;;13.30;99.90;;;;;;5018028;28;20217;-88
2022/10/16 00:36:55;;;;;;;5.10;2.97;;;13.20;99.90;;;;;;5018365;28;20164;-88
2022/10/16 00:39:22;;;;;;;5.93;2.43;;;13.20;99.90;;;;;;5023971;28;20170;-85
2022/10/16 00:41:49;;;;;;;4.70;3.37;;;13.20;99.90;;;;;;5038726;28;20196;-86
2022/10/16 00:45:00;;;;;;;5.00;3.60;;;13.20;99.90;;;;;;5039133;28;20431;-87
2022/10/16 00:47:45;;;;;;;5.40;3.60;;;13.20;99.90;;;;;;5038397;28;20439;-91
2022/10/16 00:50:33;;;;;;;5.00;3.20;;;13.10;99.90;;;;;;5030673;28;20921;-95
2022/10/16 00:53:02;;;;;;;5.30;2.67;;;13.10;99.90;;;;;;5034676;28;20436;-94
2022/10/16 00:55:30;;;;;;;4.23;3.00;;;13.10;99.90;;;;;;5030866;28;20423;-95
2022/10/16 00:57:59;;;;;;;6.27;3.07;;;13.00;99.90;;;;;;5041280;28;20470;-95
2022/10/16 01:00:26;;;;;;;6.10;2.43;;;13.00;99.90;;;;;;5045609;28;20926;-93
2022/10/16 01:03:26;;;;;;;3.53;2.30;;;13.00;99.90;;;;;;5051508;28;20429;-93
2022/10/16 01:06:26;;;;;;;4.23;2.53;;;13.00;99.90;;;;;;5049777;28;20474;-93
2022/10/16 01:09:19;;;;;;;5.33;3.10;;;12.90;99.90;;;;;;5063137;22;20400;-85
2022/10/16 01:14:37;;;;;;;3.17;2.33;;;13.00;99.90;;;;;;5242711;23;20485;-91
2022/10/16 01:17:17;;;;;;;3.97;2.70;;;13.00;99.90;;;;;;5052640;28;20397;-93
2022/10/16 01:20:11;;;;;;;4.30;2.37;;;13.00;99.90;;;;;;5049203;28;20429;-94
2022/10/16 01:23:14;;;;;;;3.50;1.97;;;13.00;99.90;;;;;;5120342;22;20985;-94
2022/10/16 01:26:03;;;;;;;6.10;2.90;;;13.00;99.90;;;;;;5036986;28;20448;-92
2022/10/16 01:28:36;;;;;;;4.03;1.90;;;13.00;99.90;;;;;;4997320;28;20425;-95
2022/10/16 01:31:02;;;;;;;3.80;1.80;;;13.00;99.90;;;;;;5036099;28;20497;-95
2022/10/16 01:33:45;;;;;;;3.30;1.40;;;13.00;99.90;;;;;;5035170;28;20445;-95
2022/10/16 01:36:16;;;;;;;3.90;1.80;;;12.90;99.90;;;;;;5035422;28;20425;-93
2022/10/16 01:38:44;;;;;;;2.93;1.80;;;12.80;99.90;;;;;;5036784;28;20467;-94
2022/10/16 01:41:15;;;;;;;3.30;1.40;;;12.90;99.90;;;;;;5036254;28;20403;-93
2022/10/16 01:43:49;;;;;;;4.90;1.17;;;12.80;99.90;;;;;;5036415;28;20447;-95
2022/10/16 01:46:18;;;;;;;3.87;1.17;;;12.80;99.90;;;;;;5036518;28;20535;-95
2022/10/16 01:48:44;;;;;;;2.20;1.07;;;12.70;99.90;;;;;;5037423;28;20411;-94
2022/10/16 01:51:13;;;;;;;3.40;1.30;;;12.80;99.90;;;;;;5040073;28;20430;-95
2022/10/16 01:53:41;;;;;;;5.83;0.73;;;12.80;99.90;;;;;;5036126;28;20164;-93
2022/10/16 01:56:10;;;;;;;3.93;1.67;;;12.80;99.90;;;;;;5037517;28;20428;-94
2022/10/16 01:58:41;;;;;;;1.60;0.47;;;12.90;99.90;;;;;;5038222;28;20418;-95
2022/10/16 02:01:10;;;;;;;2.00;0.40;;;12.90;99.90;;;;;;5037591;28;20409;-94
2022/10/16 02:03:39;;;;;;;3.17;0.80;;;12.90;99.90;;;;;;5036258;28;20408;-95
2022/10/16 02:06:05;;;;;;;0.90;0.63;;;12.80;99.90;;;;;;5035824;28;20485;-94
2022/10/16 02:08:31;;;;;;;3.07;0.63;;;12.90;99.90;;;;;;5036794;28;20409;-94
2022/10/16 02:10:57;;;;;;;2.30;1.43;;;12.80;99.90;;;;;;5040118;28;20253;-94
2022/10/16 02:13:32;;;;;;;1.40;0.40;;;12.70;99.90;;;;;;5040783;28;20465;-95
2022/10/16 02:15:58;;;;;;;2.47;0.50;;;12.70;99.90;;;;;;5038711;28;20424;-95
2022/10/16 02:18:28;;;;;;;2.70;0.37;;;12.70;99.90;;;;;;5039823;28;20426;-92
2022/10/16 02:21:04;;;;;;;1.80;0.80;;;12.60;99.90;;;;;;5039658;28;20224;-94
2022/10/16 02:23:45;;;;;;;1.57;0.33;;;12.80;99.90;;;;;;5038550;28;20979;-96
2022/10/16 02:26:16;;;;;;;1.53;0.57;;;12.70;99.90;;;;;;5038810;28;20513;-95
2022/10/16 02:28:47;;;;;;;2.43;0.57;;;12.70;99.90;;;;;;5040432;28;20484;-95
2022/10/16 02:31:18;;;;;;;2.23;0.40;;;12.70;99.90;;;;;;5040158;28;20441;-93
2022/10/16 02:33:45;;;;;;;2.20;0.50;;;12.70;99.90;;;;;;5038315;28;20421;-94
2022/10/16 02:36:11;;;;;;;2.03;0.40;;;12.70;99.90;;;;;;5039292;28;20432;-94
2022/10/16 02:38:38;;;;;;;2.03;0.70;;;12.60;99.90;;;;;;5038371;28;20434;-95
2022/10/16 02:41:04;;;;;;;1.80;0.57;;;12.60;99.90;;;;;;5039426;28;20417;-95
2022/10/16 02:43:30;;;;;;;1.90;0.80;;;12.60;99.90;;;;;;5039621;28;20421;-93
2022/10/16 02:45:55;;;;;;;3.60;0.40;;;12.60;99.90;;;;;;5038915;28;20465;-95
2022/10/16 02:48:21;;;;;;;1.13;0.50;;;12.50;99.90;;;;;;5039206;28;20594;-94
2022/10/16 02:50:46;;;;;;;1.23;0.30;;;12.50;99.90;;;;;;5040557;28;20255;-94
2022/10/16 02:53:12;;;;;;;3.80;0.50;;;12.50;99.90;;;;;;5050456;28;20167;-93
2022/10/16 02:55:37;;;;;;;2.10;0.43;;;12.50;99.90;;;;;;5044859;28;20181;-95
2022/10/16 02:58:03;;;;;;;3.47;0.47;;;12.40;99.90;;;;;;5039968;28;20220;-95
2022/10/16 03:00:28;;;;;;;2.37;0.30;;;12.40;99.90;;;;;;5039329;28;20570;-94
2022/10/16 03:02:54;;;;;;;2.40;0.30;;;12.40;99.90;;;;;;5041544;28;20169;-95
2022/10/16 03:05:19;;;;;;;2.93;0.53;;;12.30;99.90;;;;;;5040063;28;20202;-95
2022/10/16 03:07:45;;;;;;;2.00;0.67;;;12.20;99.90;;;;;;5040418;28;20236;-92
2022/10/16 03:10:10;;;;;;;2.87;0.43;;;12.20;99.90;;;;;;5040456;28;20192;-87
2022/10/16 03:12:36;;;;;;;4.33;0.50;;;12.20;99.90;;;;;;5039978;28;20178;-95
2022/10/16 03:15:02;;;;;;;1.13;0.20;;;12.10;99.90;;;;;;5040397;28;20236;-95
2022/10/16 03:17:27;;;;;;;2.60;0.50;;;12.10;99.90;;;;;;5040661;28;20213;-94
2022/10/16 03:19:53;;;;;;;3.23;0.80;;;12.10;99.90;;;;;;5040761;28;20167;-93
2022/10/16 03:22:18;;;;;;;1.20;0.60;;;12.10;99.90;;;;;;5040119;28;20259;-93
2022/10/16 03:24:44;;;;;;;1.23;0.23;;;12.00;99.90;;;;;;5040201;28;20250;-95
2022/10/16 03:27:09;;;;;;;3.33;0.70;;;12.00;99.90;;;;;;5045641;28;20222;-93
2022/10/16 03:29:35;;;;;;;3.20;0.53;;;12.00;99.90;;;;;;5054926;28;20171;-90
2022/10/16 03:32:01;;;;;;;1.53;0.33;;;12.00;99.90;;;;;;5045542;28;20176;-94
2022/10/16 03:34:26;;;;;;;0.87;0.30;;;12.00;99.90;;;;;;5044130;28;20199;-95
2022/10/16 03:36:52;;;;;;;1.77;0.57;;;11.90;99.90;;;;;;5045276;28;20425;-88
2022/10/16 03:39:18;;;;;;;3.63;0.43;;;11.90;99.90;;;;;;5043302;28;20194;-95
2022/10/16 03:41:43;;;;;;;3.83;0.80;;;11.90;99.90;;;;;;5040922;28;20170;-91
2022/10/16 03:44:09;;;;;;;3.33;0.70;;;11.90;99.90;;;;;;5039975;28;20190;-92
2022/10/16 03:46:34;;;;;;;0.63;0.30;;;11.90;99.90;;;;;;5039727;28;20233;-94
2022/10/16 03:49:00;;;;;;;1.90;0.20;;;11.90;99.90;;;;;;5037147;28;20178;-92
2022/10/16 03:51:25;;;;;;;1.03;0.63;;;11.90;99.90;;;;;;5038276;28;20177;-94
2022/10/16 03:53:51;;;;;;;1.07;0.43;;;11.80;99.90;;;;;;5036684;28;20164;-89
2022/10/16 03:56:16;;;;;;;0.80;0.20;;;11.90;99.90;;;;;;5036007;28;20529;-94
2022/10/16 03:58:42;;;;;;;1.43;0.37;;;11.90;99.90;;;;;;5037731;28;20214;-95
2022/10/16 04:01:07;;;;;;;1.97;0.40;;;11.90;99.90;;;;;;5035783;28;20213;-94
2022/10/16 04:03:33;;;;;;;0.83;0.20;;;11.90;99.90;;;;;;5035993;28;20230;-91
2022/10/16 04:05:58;;;;;;;0.80;0.33;;;11.90;99.90;;;;;;5033986;28;20243;-94
2022/10/16 04:08:24;;;;;;;1.00;0.30;;;12.00;99.90;;;;;;5035557;28;20619;-94
2022/10/16 04:10:49;;;;;;;3.10;0.47;;;11.90;99.90;;;;;;5035711;28;20264;-94
2022/10/16 04:13:15;;;;;;;1.80;0.30;;;11.90;99.90;;;;;;5036292;28;20177;-92
2022/10/16 04:15:46;;;;;;;1.63;0.30;;;11.80;99.90;;;;;;5035852;28;20623;-94
2022/10/16 04:18:12;;;;;;;0.83;0.20;;;11.70;99.90;;;;;;5038370;28;20402;-96
2022/10/16 04:20:38;;;;;;;2.50;0.60;;;11.70;99.90;;;;;;5035690;28;20455;-94
2022/10/16 04:23:03;;;;;;;1.03;0.50;;;11.70;99.90;;;;;;5036107;28;20313;-95
2022/10/16 04:25:29;;;;;;;1.43;0.43;;;11.70;99.90;;;;;;5036172;28;20225;-91
2022/10/16 04:27:55;;;;;;;1.17;0.30;;;11.70;99.90;;;;;;5038807;28;20545;-90
2022/10/16 04:30:21;;;;;;;0.70;0.20;;;11.70;99.90;;;;;;5035268;28;20421;-87
2022/10/16 04:32:51;;;;;;;1.63;0.50;;;11.70;99.90;;;;;;5034237;28;20189;-95
2022/10/16 04:35:18;;;;;;;3.37;0.50;;;11.60;99.90;;;;;;5036907;28;20432;-90
2022/10/16 04:37:44;;;;;;;2.67;0.60;;;11.60;99.90;;;;;;5035006;28;20424;-95
2022/10/16 04:40:10;;;;;;;1.00;0.20;;;11.60;99.90;;;;;;5035232;28;20409;-96
2022/10/16 04:42:35;;;;;;;1.97;0.37;;;11.60;99.90;;;;;;5038761;28;20290;-93
2022/10/16 04:45:01;;;;;;;5.70;0.57;;;11.60;99.90;;;;;;5039394;28;20457;-94
2022/10/16 04:47:26;;;;;;;2.50;0.40;;;11.60;99.90;;;;;;5036531;28;20188;-91
2022/10/16 04:49:52;;;;;;;2.50;0.43;;;11.60;99.90;;;;;;5040861;28;20205;-94
2022/10/16 04:52:18;;;;;;;1.13;0.40;;;11.70;99.90;;;;;;5039502;28;20183;-92
2022/10/16 04:54:45;;;;;;;0.63;0.20;;;11.70;99.90;;;;;;5037480;28;20167;-88
2022/10/16 04:57:10;;;;;;;2.10;0.53;;;11.70;99.90;;;;;;5037855;28;20414;-92
2022/10/16 04:59:36;;;;;;;1.47;0.40;;;11.60;99.90;;;;;;5037681;28;20414;-92
2022/10/16 05:02:01;;;;;;;2.47;0.50;;;11.60;99.90;;;;;;5041337;28;20165;-93
2022/10/16 05:04:27;;;;;;;1.70;0.37;;;11.50;99.90;;;;;;5041868;28;20550;-86
2022/10/16 05:06:53;;;;;;;1.40;0.33;;;11.60;99.90;;;;;;5033846;28;20210;-94
2022/10/16 05:09:18;;;;;;;2.33;0.27;;;11.60;99.90;;;;;;5034579;28;20170;-94
2022/10/16 05:11:43;;;;;;;1.67;0.33;;;11.60;99.90;;;;;;5033594;28;20542;-96
2022/10/16 05:14:09;;;;;;;1.27;0.47;;;11.50;99.90;;;;;;5032991;28;20182;-93
2022/10/16 05:16:34;;;;;;;1.13;0.67;;;11.40;99.90;;;;;;5034559;28;20226;-94
2022/10/16 05:19:00;;;;;;;1.10;0.20;;;11.50;99.90;;;;;;5032965;28;20176;-91
2022/10/16 05:21:25;;;;;;;1.40;0.30;;;11.50;99.90;;;;;;5033882;28;20172;-88
2022/10/16 05:23:54;;;;;;;1.80;0.40;;;11.50;99.90;;;;;;5033907;28;20225;-90
2022/10/16 05:26:20;;;;;;;1.93;0.30;;;11.50;99.90;;;;;;5033790;28;20217;-89
2022/10/16 05:28:45;;;;;;;2.83;0.47;;;11.50;99.90;;;;;;5034496;28;20401;-92
2022/10/16 05:31:10;;;;;;;3.53;0.57;;;11.50;99.90;;;;;;5033857;28;20418;-87
2022/10/16 05:33:36;;;;;;;2.30;0.40;;;11.40;99.90;;;;;;5033937;28;20200;-93
2022/10/16 05:36:07;;;;;;;5.60;0.53;;;11.50;99.90;;;;;;5033998;28;20249;-94
2022/10/16 05:38:33;;;;;;;3.17;0.27;;;11.50;99.90;;;;;;5021287;28;20176;-95
2022/10/16 05:40:59;;;;;;;2.70;0.47;;;11.40;99.90;;;;;;4998909;28;20536;-93
2022/10/16 05:43:24;;;;;;;0.50;0.20;;;11.40;99.90;;;;;;5014652;28;20437;-95
2022/10/16 05:45:54;;;;;;;2.10;0.83;;;11.30;99.90;;;;;;5018209;28;20205;-91
2022/10/16 05:48:20;;;;;;;2.47;0.50;;;11.30;99.90;;;;;;5017451;28;20541;-94
2022/10/16 05:50:45;;;;;;;2.57;0.50;;;11.30;99.90;;;;;;5017845;28;20513;-95
2022/10/16 05:53:10;;;;;;;1.13;0.30;;;11.30;99.90;;;;;;5019123;28;20237;-95
2022/10/16 05:55:36;;;;;;;2.63;0.40;;;11.30;99.90;;;;;;5018104;28;20235;-95
2022/10/16 05:58:01;;;;;;;4.03;2.67;;;11.40;99.90;;;;;;5020121;28;20184;-93
2022/10/16 06:00:27;;;;;;;1.50;0.40;;;11.40;99.90;;;;;;5018497;28;20695;-95
2022/10/16 06:02:53;;;;;;;2.40;0.77;;;11.40;99.90;;;;;;5018070;28;20173;-93
2022/10/16 06:05:19;;;;;;;2.70;0.53;;;11.40;99.90;;;;;;5018716;28;20245;-95
2022/10/16 06:07:44;;;;;;;1.50;0.73;;;11.40;99.90;;;;;;5017798;28;20442;-95
2022/10/16 06:10:09;;;;;;;2.43;0.30;;;11.40;99.90;;;;;;5017866;28;20249;-89
2022/10/16 06:12:35;;;;;;;1.83;0.57;;;11.50;99.90;;;;;;5018486;28;20177;-89
2022/10/16 06:15:00;;;;;;;2.20;0.40;;;11.40;99.90;;;;;;5018961;28;20235;-95
2022/10/16 06:17:26;;;;;;;4.43;0.93;;;11.40;99.90;;;;;;5017546;28;20182;-92
2022/10/16 06:19:51;;;;;;;0.90;0.30;;;11.50;99.90;;;;;;5017608;28;20706;-95
2022/10/16 06:22:17;;;;;;;2.37;0.70;;;11.60;99.90;;;;;;5018499;28;20224;-95
2022/10/16 06:24:42;;;;;;;1.40;0.30;;;11.60;99.90;;;;;;5018769;28;20181;-93
2022/10/16 06:27:08;;;;;;;3.00;0.80;;;11.70;99.90;;;;;;5017010;28;20671;-95
2022/10/16 06:29:33;;;;;;;4.97;0.67;;;11.70;99.90;;;;;;5017164;28;20175;-95
2022/10/16 06:31:59;;;;;;;1.53;0.40;;;11.70;99.90;;;;;;5026658;28;20176;-94
2022/10/16 06:34:24;;;;;;;1.30;0.50;;;11.70;99.90;;;;;;5029526;28;20169;-95
2022/10/16 06:36:50;;;;;;;3.27;0.97;;;11.70;99.90;;;;;;5030200;28;20185;-94
2022/10/16 06:39:15;;;;;;;3.93;0.57;;;11.80;99.90;;;;;;5027815;28;20570;-94
2022/10/16 06:41:41;;;;;;;4.13;0.63;;;11.80;99.90;;;;;;5027249;28;20639;-94
2022/10/16 06:44:07;;;;;;;2.10;0.50;;;11.80;99.90;;;;;;5026749;28;20665;-95
2022/10/16 06:46:33;;;;;;;2.53;0.80;;;11.80;99.90;;;;;;5025417;28;20269;-95
2022/10/16 06:48:59;;;;;;;3.73;0.87;;;11.80;99.90;;;;;;5020676;28;20421;-95
2022/10/16 06:51:25;;;;;;;2.43;0.40;;;11.80;99.90;;;;;;5020201;28;20483;-95
2022/10/16 06:53:53;;;;;;;3.37;0.97;;;11.80;99.90;;;;;;5022573;28;20261;-87
2022/10/16 06:56:24;;;;;;;2.40;1.00;;;11.80;99.90;;;;;;5026992;28;20257;-94
2022/10/16 06:58:50;;;;;;;2.80;0.80;;;11.90;99.90;;;;;;5020011;28;20767;-93
2022/10/16 07:01:24;;;;;;;4.13;1.20;;;12.00;99.90;;;;;;5024785;28;20473;-94
2022/10/16 07:03:49;;;;;;;5.23;0.90;;;12.30;99.90;;;;;;5025707;28;20407;-94
2022/10/16 07:06:18;;;;;;;5.93;0.87;;;12.40;99.90;;;;;;5026879;28;20469;-95
2022/10/16 07:08:45;;;;;;;2.93;0.77;;;12.50;99.90;;;;;;5049201;23;20230;-88
2022/10/16 07:11:16;;;;;;;2.30;0.97;;;12.70;99.90;;;;;;5044065;28;20418;-96
2022/10/16 07:13:43;;;;;;;4.43;1.43;;;12.80;99.90;;;;;;5043593;28;20403;-92
2022/10/16 07:16:20;;;;;;;19.13;1.90;;;13.10;99.90;;;;;;5044435;28;20422;-94
2022/10/16 07:18:48;;;;;;;3.00;1.27;;;13.30;99.90;;;;;;5045250;28;20431;-93
2022/10/16 07:21:16;;;;;;;2.83;1.50;;;13.40;99.90;;;;;;5046178;28;20407;-95
2022/10/16 07:23:43;;;;;;;4.03;1.30;;;13.70;99.90;;;;;;5048746;28;20426;-93
2022/10/16 07:26:09;;;;;;;1.67;0.70;;;14.30;99.90;;;;;;5047224;28;20471;-92
2022/10/16 07:28:35;;;;;;;3.53;0.60;;;14.70;99.90;;;;;;5041859;28;20414;-87
2022/10/16 07:31:06;;;;;;;2.53;0.53;;;14.40;99.90;;;;;;5042325;28;20509;-90
2022/10/16 07:33:34;;;;;;;2.00;0.90;;;15.20;99.90;;;;;;5044628;28;20256;-89
2022/10/16 07:36:00;;;;;;;1.13;0.43;;;17.30;1.00;;;;;;5046046;28;20923;-93
2022/10/16 07:38:25;;;;;;;2.20;0.53;;;19.10;87.10;;;;;;5048960;28;20492;-95
2022/10/16 07:41:02;;;;;;;4.30;0.80;;;20.00;99.90;;;;;;5043081;28;20245;-91
2022/10/16 07:43:28;;;;;;;3.13;0.80;;;20.40;1.00;;;;;;5041774;28;20339;-86
2022/10/16 07:45:58;;;;;;;2.60;0.43;;;20.30;1.00;;;;;;5040521;28;20479;-86
2022/10/16 07:48:26;;;;;;;1.03;0.57;;;19.80;1.00;;;;;;5043883;28;20420;-93
2022/10/16 07:50:52;;;;;;;0.80;0.40;;;20.20;1.00;;;;;;5040123;28;20423;-88
2022/10/16 07:53:17;;;;;;;1.33;0.50;;;19.00;99.90;;;;;;5044603;28;20459;-89
2022/10/16 07:55:43;;;;;;;1.40;0.60;;;18.10;1.00;;;;;;5037867;28;20177;-87
2022/10/16 07:58:09;;;;;;;1.77;0.50;;;17.90;1.00;;;;;;5035627;28;20261;-86
2022/10/16 08:00:36;;;;;;;1.60;0.37;;;18.20;99.90;;;;;;5033410;28;20546;-86
2022/10/16 08:03:04;;;;;;;0.77;0.20;;;19.10;99.90;;;;;;5033597;28;20176;-86
2022/10/16 08:05:31;;;;;;;1.77;0.20;;;21.00;1.00;;;;;;5036149;28;20815;-94
2022/10/16 08:07:57;;;;;;;0.70;0.20;;;22.00;99.90;;;;;;5038687;28;20813;-89
2022/10/16 08:10:25;;;;;;;1.00;0.80;;;19.80;1.00;;;;;;5042412;28;20421;-93
2022/10/16 08:12:51;;;;;;;3.33;0.40;;;18.40;99.90;;;;;;5046494;28;20266;-88
2022/10/16 08:15:18;;;;;;;1.50;0.30;;;17.90;99.90;;;;;;5045618;28;20460;-91
2022/10/16 08:17:44;;;;;;;3.50;0.53;;;17.80;99.90;;;;;;5041571;28;20420;-94
2022/10/16 08:20:10;;;;;;;1.47;0.20;;;17.70;1.00;;;;;;5041164;28;20421;-89
2022/10/16 08:22:36;;;;;;;3.03;0.33;;;17.70;99.90;;;;;;5041897;28;20192;-91
2022/10/16 08:25:02;;;;;;;2.80;0.43;;;17.20;1.00;;;;;;5039538;28;20407;-92
2022/10/16 08:27:33;;;;;;;0.70;0.20;;;16.90;1.00;;;;;;5041778;28;20267;-95
2022/10/16 08:29:58;;;;;;;1.33;0.43;;;17.10;1.00;;;;;;5040475;28;20763;-87
2022/10/16 08:32:23;;;;;;;2.50;0.40;;;17.00;1.00;;;;;;5046862;28;20451;-86
2022/10/16 08:34:49;;;;;;;1.63;0.20;;;17.40;1.00;;;;;;5041958;28;20179;-87
2022/10/16 08:37:14;;;;;;;1.43;0.40;;;17.70;99.90;;;;;;5041160;28;20596;-87
2022/10/16 08:39:40;;;;;;;0.97;0.30;;;18.50;99.90;;;;;;5044677;28;20183;-90
2022/10/16 08:42:18;;;;;;;0.80;0.20;;;20.00;1.00;;;;;;5044537;28;20617;-85
2022/10/16 08:45:15;;;;;;;1.53;0.33;;;21.60;1.00;;;;;;5045458;28;20192;-93
2022/10/16 08:48:22;;;;;;;3.37;0.57;;;21.50;99.90;;;;;;5040587;28;20427;-88
2022/10/16 08:50:51;;;;;;;0.97;0.20;;;21.80;99.90;;;;;;5008536;28;20436;-91
2022/10/16 08:53:41;;;;;;;0.93;0.23;;;23.50;99.90;;;;;;5044439;28;20405;-90
2022/10/16 08:56:07;;;;;;;3.83;0.30;;;24.10;99.90;;;;;;5043588;28;20397;-94
2022/10/16 08:58:33;;;;;;;1.67;0.50;;;24.50;99.90;;;;;;5043895;28;20420;-92
2022/10/16 09:01:01;;;;;;;1.40;0.20;;;24.20;99.90;;;;;;5045196;28;20180;-90
2022/10/16 09:04:07;;;;;;;1.70;0.20;;;24.20;99.90;;;;;;5040469;28;20177;-86
2022/10/16 09:06:52;;;;;;;0.93;0.40;;;24.00;99.90;;;;;;5057250;22;20496;-94
2022/10/16 09:09:32;;;;;;;1.13;0.57;;;24.80;99.90;;;;;;5040154;28;20447;-87
2022/10/16 09:12:13;;;;;;;1.23;0.23;;;24.00;99.90;;;;;;5033908;28;20440;-88
2022/10/16 09:15:05;;;;;;;0.60;0.20;;;24.10;99.90;;;;;;5033787;28;20500;-87
2022/10/16 09:17:48;;;;;;;2.13;0.20;;;24.50;99.90;;;;;;5034674;28;20820;-86
2022/10/16 09:20:24;;;;;;;0.80;0.20;;;24.30;99.90;;;;;;5040525;28;20412;-90
2022/10/16 09:23:16;;;;;;;0.60;0.20;;;24.70;99.90;;;;;;5040195;28;20774;-90
2022/10/16 09:25:45;;;;;;;1.47;0.60;;;25.20;99.90;;;;;;5040184;28;20534;-89
2022/10/16 09:28:11;;;;;;;0.70;0.30;;;24.80;99.90;;;;;;5040029;28;20425;-86
2022/10/16 09:30:38;;;;;;;0.50;0.20;;;24.50;99.90;;;;;;5039943;28;20435;-86
2022/10/16 09:33:05;;;;;;;1.33;0.33;;;24.30;99.90;;;;;;5038720;28;20202;-88
2022/10/16 09:35:47;;;;;;;0.90;0.20;;;24.70;99.90;;;;;;5040200;28;20408;-87
2022/10/16 09:38:29;;;;;;;1.43;0.47;;;25.00;99.90;;;;;;5044640;28;20421;-93
2022/10/16 09:41:02;;;;;;;3.53;0.40;;;25.40;99.90;;;;;;5050780;28;20807;-91
2022/10/16 09:43:40;;;;;;;1.03;0.30;;;25.60;99.90;;;;;;5041230;28;20432;-93
2022/10/16 09:46:08;;;;;;;0.90;0.27;;;25.90;99.90;;;;;;5042314;28;20468;-91
2022/10/16 09:48:43;;;;;;;0.57;0.20;;;25.80;99.90;;;;;;5045794;28;20491;-96
2022/10/16 09:51:26;;;;;;;1.30;0.20;;;26.30;99.90;;;;;;5043855;28;20421;-93
2022/10/16 09:54:13;;;;;;;2.10;0.40;;;25.90;99.90;;;;;;5046114;28;20436;-94
2022/10/16 09:56:40;;;;;;;0.57;0.27;;;26.30;99.90;;;;;;5042073;28;20436;-88
2022/10/16 09:59:13;;;;;;;1.20;0.50;;;26.50;99.90;;;;;;5040352;28;20424;-89
2022/10/16 10:01:45;;;;;;;1.17;0.50;;;22.70;99.90;;;;;;5040588;28;20425;-87
2022/10/16 10:04:11;;;;;;;1.90;0.20;;;23.80;99.90;;;;;;5040971;28;20764;-90
2022/10/16 10:06:43;;;;;;;1.10;0.30;;;24.20;99.90;;;;;;5040898;28;20529;-87
2022/10/16 10:09:25;;;;;;;1.27;0.40;;;25.40;99.90;;;;;;5043281;28;20496;-88
2022/10/16 10:11:56;;;;;;;1.10;0.80;;;26.10;99.90;;;;;;5041856;28;20411;-86
2022/10/16 10:14:25;;;;;;;1.10;0.20;;;26.20;99.90;;;;;;5040267;28;20504;-88
2022/10/16 10:17:01;;;;;;;2.60;0.30;;;25.80;99.90;;;;;;5042371;28;20429;-91
2022/10/16 10:19:27;;;;;;;1.50;0.20;;;25.70;99.90;;;;;;5035086;28;20415;-86
2022/10/16 10:21:53;;;;;;;2.93;0.30;;;25.80;99.90;;;;;;5062332;28;20928;-85
2022/10/16 10:24:19;;;;;;;0.40;0.20;;;25.10;99.90;;;;;;5059196;28;20444;-84
2022/10/16 10:27:03;;;;;;;1.53;0.43;;;23.70;99.90;;;;;;5058974;28;20292;-88
2022/10/16 10:29:52;;;;;;;1.00;0.20;;;22.10;99.90;;;;;;5057900;28;20424;-86
2022/10/16 10:32:34;;;;;;;1.07;0.40;;;21.90;99.90;;;;;;5056244;28;20504;-86
2022/10/16 10:35:21;;;;;;;1.33;0.23;;;22.30;99.90;;;;;;5056259;28;20430;-86
2022/10/16 10:38:00;;;;;;;0.70;0.20;;;21.70;99.90;;;;;;5056201;28;20461;-85
2022/10/16 10:40:39;;;;;;;1.60;0.20;;;22.30;99.90;;;;;;5056118;28;20992;-88
2022/10/16 10:43:26;;;;;;;4.13;0.63;;;21.40;99.90;;;;;;5055157;28;20514;-86
2022/10/16 10:46:03;;;;;;;2.73;0.27;;;21.30;99.90;;;;;;5056502;28;20822;-85
2022/10/16 10:48:43;;;;;;;1.37;0.30;;;21.00;99.90;;;;;;5056730;28;20927;-88
2022/10/16 10:51:16;;;;;;;1.10;0.20;;;21.00;99.90;;;;;;5057021;28;20510;-89
2022/10/16 10:53:55;;;;;;;1.73;0.33;;;21.40;99.90;;;;;;5056687;28;20408;-87
2022/10/16 10:56:26;;;;;;;1.80;0.30;;;22.40;99.90;;;;;;5056160;28;20835;-87
2022/10/16 10:59:07;;;;;;;1.63;0.20;;;21.60;99.90;;;;;;5056601;28;20996;-88
2022/10/16 11:01:56;;;;;;;0.70;0.20;;;21.10;99.90;;;;;;5056215;28;20438;-86
2022/10/16 11:04:49;;;;;;;1.43;0.20;;;20.80;99.90;;;;;;5055665;28;20407;-84
2022/10/16 11:07:41;;;;;;;0.73;0.20;;;20.60;99.90;;;;;;5055975;28;20879;-84
2022/10/16 11:10:17;;;;;;;1.23;0.20;;;20.90;99.90;;;;;;5055436;28;20415;-85
2022/10/16 11:12:45;;;;;;;1.83;0.30;;;21.20;99.90;;;;;;5055467;28;20461;-86
2022/10/16 11:15:24;;;;;;;0.97;0.23;;;21.20;99.90;;;;;;5055394;28;20414;-85
2022/10/16 11:18:07;;;;;;;1.70;0.50;;;22.70;99.90;;;;;;5055780;28;20454;-86
2022/10/16 11:20:42;;;;;;;0.73;0.20;;;22.80;99.90;;;;;;5055399;28;20451;-85
2022/10/16 11:23:17;;;;;;;1.87;0.57;;;21.70;99.90;;;;;;5055502;28;20911;-86
2022/10/16 11:25:44;;;;;;;3.10;0.50;;;21.10;99.90;;;;;;5054840;28;20542;-87
2022/10/16 11:28:32;;;;;;;0.90;0.20;;;21.40;99.90;;;;;;5055162;28;20473;-85
2022/10/16 11:31:28;;;;;;;1.83;0.30;;;21.00;99.90;;;;;;5054968;28;20455;-85
2022/10/16 11:34:17;;;;;;;1.33;0.30;;;20.60;99.90;;;;;;5055370;28;20404;-86
2022/10/16 11:36:51;;;;;;;1.17;0.20;;;20.30;99.90;;;;;;5054967;28;20947;-84
2022/10/16 11:39:24;;;;;;;0.70;0.20;;;21.40;99.90;;;;;;5049354;28;20420;-93
2022/10/16 11:41:54;;;;;;;0.90;0.20;;;23.50;99.90;;;;;;5017449;28;20422;-92
2022/10/16 11:44:26;;;;;;;0.53;0.20;;;22.90;99.90;;;;;;5017822;28;20458;-90
2022/10/16 11:47:17;;;;;;;2.30;0.30;;;23.60;99.90;;;;;;5032535;28;20510;-89
2022/10/16 11:49:45;;;;;;;1.90;0.30;;;24.40;99.90;;;;;;4993272;28;20827;-92
2022/10/16 11:52:28;;;;;;;1.57;0.20;;;23.00;99.90;;;;;;5021376;28;20422;-93
2022/10/16 11:55:20;;;;;;;2.10;0.20;;;21.30;99.90;;;;;;5018833;28;20417;-91
2022/10/16 11:57:50;;;;;;;1.60;0.30;;;20.50;99.90;;;;;;5006249;28;20521;-93
2022/10/16 12:00:28;;;;;;;0.60;0.10;;;20.10;99.90;;;;;;5017491;28;20464;-88
2022/10/16 12:03:03;;;;;;;1.87;0.30;;;21.30;99.90;;;;;;5017671;28;20903;-90
2022/10/16 12:05:46;;;;;;;1.10;0.20;;;22.50;99.90;;;;;;5014195;28;20480;-87
2022/10/16 12:08:14;;;;;;;0.57;0.20;;;22.10;99.90;;;;;;5014395;28;20460;-88
2022/10/16 12:10:46;;;;;;;2.97;0.27;;;20.50;99.90;;;;;;5014243;28;20398;-83
2022/10/16 12:13:30;;;;;;;1.37;0.87;;;20.40;99.90;;;;;;5026244;28;20421;-85
2022/10/16 12:16:14;;;;;;;1.67;0.30;;;21.00;99.90;;;;;;5032746;28;20417;-85
2022/10/16 12:18:52;;;;;;;0.87;0.20;;;20.40;99.90;;;;;;5033861;28;20484;-84
2022/10/16 12:21:29;;;;;;;0.77;0.23;;;20.70;99.90;;;;;;5034216;28;20484;-85
2022/10/16 12:23:58;;;;;;;1.17;0.20;;;20.60;99.90;;;;;;5033835;28;20517;-84
2022/10/16 12:26:25;;;;;;;0.87;0.20;;;20.10;99.90;;;;;;5025761;28;20469;-84
2022/10/16 12:28:51;;;;;;;1.73;0.30;;;20.10;99.90;;;;;;5022826;28;20471;-86
2022/10/16 12:31:17;;;;;;;3.47;0.40;;;19.80;99.90;;;;;;5021217;28;20516;-84
2022/10/16 12:34:23;;;;;;;1.10;0.20;;;19.60;99.90;;;;;;5021476;28;20175;-82
2022/10/16 12:36:50;;;;;;;6.30;0.37;;;19.70;99.90;;;;;;5017497;28;20206;-82
2022/10/16 12:39:24;;;;;;;1.90;0.20;;;19.80;99.90;;;;;;5022955;28;20464;-82
2022/10/16 12:42:01;;;;;;;3.83;0.27;;;19.80;99.90;;;;;;5023237;28;20421;-83
2022/10/16 12:44:32;;;;;;;1.70;0.40;;;19.40;99.90;;;;;;5023100;28;20420;-83
2022/10/16 12:46:58;;;;;;;1.87;0.27;;;19.40;99.90;;;;;;5023134;28;20478;-86
2022/10/16 12:49:38;;;;;;;2.47;0.30;;;19.40;99.90;;;;;;5021478;28;20421;-83
2022/10/16 12:52:05;;;;;;;2.20;0.20;;;19.50;99.90;;;;;;5022801;28;20173;-85
2022/10/16 12:54:36;;;;;;;2.73;0.37;;;19.90;99.90;;;;;;5021708;28;20413;-83
2022/10/16 12:57:31;;;;;;;1.77;0.20;;;20.00;99.90;;;;;;5023072;28;20488;-83
2022/10/16 13:00:31;;;;;;;5.60;0.50;;;20.00;99.90;;;;;;5023126;28;20940;-85
2022/10/16 13:03:28;;;;;;;1.00;0.23;;;20.00;99.90;;;;;;5012200;28;20849;-85
2022/10/16 13:06:05;;;;;;;2.57;0.70;;;20.10;99.90;;;;;;5022557;28;20503;-83
2022/10/16 13:08:51;;;;;;;2.30;0.20;;;20.20;99.90;;;;;;5030415;28;20420;-82
2022/10/16 13:11:35;;;;;;;0.40;0.20;;;20.20;99.90;;;;;;5031743;28;20420;-84